createdAt,value
2018-12-31T00:02:02.622Z,15.13
2018-12-31T00:07:11.203Z,9.63
2018-12-31T00:12:22.448Z,12.10
2018-12-31T00:17:31.893Z,14.63
2018-12-31T00:22:37.227Z,11.13
2018-12-31T00:27:42.544Z,15.93
2018-12-31T00:32:47.833Z,10.33
2018-12-31T00:37:53.127Z,7.77
2018-12-31T00:42:59.183Z,14.70
2018-12-31T00:48:04.603Z,10.77
2018-12-31T00:53:09.975Z,16.37
2018-12-31T00:58:15.316Z,13.10
2018-12-31T01:03:20.787Z,6.40
2018-12-31T01:08:26.911Z,11.60
2018-12-31T01:13:32.670Z,9.53
2018-12-31T01:18:38.391Z,10.67
2018-12-31T01:23:43.935Z,12.13
2018-12-31T01:28:50.425Z,9.57
2018-12-31T01:33:56.054Z,12.00
2018-12-31T01:39:01.977Z,13.97
2018-12-31T01:44:08.967Z,5.93
2018-12-31T01:49:14.247Z,12.40
2018-12-31T01:54:19.536Z,11.93
2018-12-31T01:59:24.819Z,13.60
2018-12-31T02:04:30.099Z,12.03
2018-12-31T02:09:36.286Z,11.60
2018-12-31T02:14:41.691Z,10.53
2018-12-31T02:19:46.979Z,5.73
2018-12-31T02:24:52.480Z,20.10
2018-12-31T02:29:57.784Z,8.67
2018-12-31T02:35:03.058Z,14.60
2018-12-31T02:40:08.555Z,17.10
2018-12-31T02:45:13.840Z,15.37
2018-12-31T02:50:19.140Z,15.37
2018-12-31T02:55:24.435Z,14.73
2018-12-31T03:00:29.720Z,6.83
2018-12-31T03:05:35.020Z,18.27
2018-12-31T03:10:40.311Z,14.57
2018-12-31T03:15:45.615Z,13.83
2018-12-31T03:20:50.951Z,9.50
2018-12-31T03:25:56.277Z,14.80
2018-12-31T03:31:01.582Z,15.53
2018-12-31T03:36:06.891Z,12.57
2018-12-31T03:41:12.183Z,11.93
2018-12-31T03:46:17.487Z,12.70
2018-12-31T03:51:22.800Z,11.73
2018-12-31T03:56:29.140Z,16.33
2018-12-31T04:01:34.452Z,7.10
2018-12-31T04:06:39.747Z,15.53
2018-12-31T04:11:45.079Z,13.23
2018-12-31T04:16:50.470Z,12.40
2018-12-31T04:21:55.764Z,6.50
2018-12-31T04:27:01.087Z,15.23
2018-12-31T04:32:06.369Z,11.10
2018-12-31T04:37:11.654Z,10.27
2018-12-31T04:42:16.955Z,11.20
2018-12-31T04:47:22.268Z,12.57
2018-12-31T04:52:27.588Z,7.93
2018-12-31T04:57:32.912Z,14.37
2018-12-31T05:02:38.241Z,10.07
2018-12-31T05:07:43.568Z,14.50
2018-12-31T05:12:48.948Z,10.27
2018-12-31T05:17:54.267Z,13.57
2018-12-31T05:22:59.615Z,8.50
2018-12-31T05:28:04.919Z,12.07
2018-12-31T05:33:11.302Z,11.67
2018-12-31T05:38:16.695Z,12.97
2018-12-31T05:43:22.002Z,11.17
2018-12-31T05:48:27.303Z,13.57
2018-12-31T05:53:32.633Z,15.30
2018-12-31T05:58:37.926Z,7.10
2018-12-31T06:03:43.280Z,13.17
2018-12-31T06:08:48.575Z,12.83
2018-12-31T06:13:53.876Z,13.23
2018-12-31T06:18:59.174Z,10.03
2018-12-31T06:24:04.419Z,15.20
2018-12-31T06:29:09.736Z,12.00
2018-12-31T06:34:15.043Z,14.43
2018-12-31T06:39:20.371Z,11.80
2018-12-31T06:44:25.706Z,11.60
2018-12-31T06:49:31.067Z,16.27
2018-12-31T06:54:36.364Z,15.47
2018-12-31T06:59:41.662Z,16.23
2018-12-31T07:04:46.969Z,14.73
2018-12-31T07:09:52.283Z,14.63
2018-12-31T07:14:57.595Z,12.10
2018-12-31T07:20:02.919Z,25.90
2018-12-31T07:25:08.240Z,35.47
2018-12-31T07:30:13.536Z,7.47
2018-12-31T07:35:18.963Z,11.00
2018-12-31T07:40:24.294Z,13.13
2018-12-31T07:45:29.607Z,16.13
2018-12-31T07:50:34.988Z,16.40
2018-12-31T07:55:40.308Z,16.43
2018-12-31T08:00:45.699Z,14.37
2018-12-31T08:05:51.016Z,15.87
2018-12-31T08:10:56.333Z,16.03
2018-12-31T08:16:01.638Z,4.37
2018-12-31T08:21:06.930Z,20.03
2018-12-31T08:26:12.251Z,14.33
2018-12-31T08:31:17.635Z,16.33
2018-12-31T08:36:22.959Z,13.50
2018-12-31T08:41:28.300Z,10.23
2018-12-31T08:46:34.065Z,13.10
2018-12-31T08:51:39.499Z,21.53
2018-12-31T08:56:44.818Z,20.90
2018-12-31T09:01:50.322Z,15.80
2018-12-31T09:06:55.782Z,16.33
2018-12-31T09:12:01.109Z,21.20
2018-12-31T09:17:08.460Z,18.37
2018-12-31T09:22:15.559Z,17.17
2018-12-31T09:27:22.382Z,16.33
2018-12-31T09:32:29.679Z,11.27
2018-12-31T09:37:35.248Z,16.27
2018-12-31T09:42:42.646Z,14.57
2018-12-31T09:47:52.058Z,11.73
2018-12-31T09:52:58.610Z,16.37
2018-12-31T09:58:07.075Z,13.43
2018-12-31T10:03:15.781Z,15.63
2018-12-31T10:08:21.926Z,15.40
2018-12-31T10:13:28.185Z,17.80
2018-12-31T10:18:34.790Z,15.33
2018-12-31T10:23:40.206Z,16.77
2018-12-31T10:28:46.933Z,11.87
2018-12-31T10:33:52.776Z,20.97
2018-12-31T10:38:58.644Z,17.40
2018-12-31T10:44:06.415Z,16.30
2018-12-31T10:49:14.563Z,15.70
2018-12-31T10:54:20.642Z,12.80
2018-12-31T10:59:30.347Z,18.30
2018-12-31T11:04:37.184Z,19.27
2018-12-31T11:09:44.048Z,17.20
2018-12-31T11:14:50.846Z,11.17
2018-12-31T11:19:56.769Z,12.67
2018-12-31T11:25:03.812Z,21.43
2018-12-31T11:30:11.425Z,21.30
2018-12-31T11:35:18.875Z,21.00
2018-12-31T11:40:26.210Z,15.23
2018-12-31T11:45:32.924Z,21.43
2018-12-31T11:50:39.859Z,17.10
2018-12-31T11:55:46.530Z,17.07
2018-12-31T12:00:53.205Z,18.33
2018-12-31T12:06:00.924Z,16.07
2018-12-31T12:11:07.915Z,10.13
2018-12-31T12:16:14.618Z,13.67
2018-12-31T12:21:21.525Z,12.30
2018-12-31T12:26:28.287Z,13.27
2018-12-31T12:31:34.995Z,11.53
2018-12-31T12:36:42.029Z,8.00
2018-12-31T12:41:49.301Z,12.07
2018-12-31T12:46:56.393Z,10.87
2018-12-31T12:52:04.539Z,11.43
2018-12-31T12:57:11.329Z,14.03
2018-12-31T13:02:19.445Z,11.73
2018-12-31T13:07:26.043Z,14.90
2018-12-31T13:12:33.949Z,13.50
2018-12-31T13:17:39.683Z,12.27
2018-12-31T13:22:47.529Z,15.07
2018-12-31T13:27:53.673Z,11.53
2018-12-31T13:32:59.528Z,9.23
2018-12-31T13:38:05.052Z,10.23
2018-12-31T13:43:12.190Z,14.17
2018-12-31T13:48:19.459Z,13.30
2018-12-31T13:53:25.328Z,10.87
2018-12-31T13:58:31.720Z,11.10
2018-12-31T14:03:37.354Z,11.03
2018-12-31T14:08:42.708Z,6.67
2018-12-31T14:13:49.088Z,10.10
2018-12-31T14:18:54.507Z,9.77
2018-12-31T14:24:00.793Z,13.07
2018-12-31T14:29:07.303Z,11.03
2018-12-31T14:34:15.713Z,16.53
2018-12-31T14:39:22.274Z,34.20
2018-12-31T14:44:28.299Z,7.43
2018-12-31T14:49:34.628Z,8.50
2018-12-31T14:54:41.338Z,12.40
2018-12-31T14:59:47.812Z,9.10
2018-12-31T15:04:53.665Z,10.47
2018-12-31T15:10:02.491Z,12.30
2018-12-31T15:15:09.118Z,12.27
2018-12-31T15:20:14.606Z,12.17
2018-12-31T15:25:20.120Z,18.67
2018-12-31T15:30:25.570Z,15.70
2018-12-31T15:35:30.956Z,10.70
2018-12-31T15:40:39.359Z,10.53
2018-12-31T15:45:44.768Z,11.07
2018-12-31T15:50:50.189Z,11.60
2018-12-31T15:55:56.605Z,10.67
2018-12-31T16:01:05.163Z,10.87
2018-12-31T16:06:10.603Z,13.97
2018-12-31T16:11:16.016Z,11.43
2018-12-31T16:16:21.414Z,15.90
2018-12-31T16:21:26.830Z,12.17
2018-12-31T16:26:32.112Z,15.83
2018-12-31T16:31:37.451Z,15.60
2018-12-31T16:36:42.872Z,11.77
2018-12-31T16:41:48.504Z,11.70
2018-12-31T16:46:53.879Z,10.33
2018-12-31T16:52:02.700Z,10.00
2018-12-31T16:57:06.263Z,8.83
2018-12-31T17:02:11.683Z,21.13
2018-12-31T17:07:17.383Z,11.27
2018-12-31T17:12:23.160Z,14.20
2018-12-31T17:17:28.500Z,15.13
2018-12-31T17:22:34.233Z,55.67
2018-12-31T17:27:39.605Z,96.40
2018-12-31T17:32:44.973Z,91.77
2018-12-31T17:37:50.626Z,27.80
2018-12-31T17:42:56.214Z,24.40
2018-12-31T17:48:02.316Z,21.47
2018-12-31T17:53:11.595Z,17.73
2018-12-31T17:58:17.264Z,21.00
2018-12-31T18:03:22.595Z,16.07
2018-12-31T18:08:28.978Z,14.57
2018-12-31T18:13:34.376Z,13.17
2018-12-31T18:18:40.748Z,15.53
2018-12-31T18:23:46.084Z,15.17
2018-12-31T18:28:51.455Z,17.10
2018-12-31T18:33:56.887Z,19.40
2018-12-31T18:39:02.279Z,17.90
2018-12-31T18:44:08.990Z,18.37
2018-12-31T18:49:14.472Z,14.30
2018-12-31T18:54:19.820Z,16.77
2018-12-31T18:59:25.479Z,14.47
2018-12-31T19:04:30.868Z,14.63
2018-12-31T19:09:36.827Z,16.53
2018-12-31T19:14:43.811Z,13.83
2018-12-31T19:19:49.204Z,12.90
2018-12-31T19:24:54.662Z,14.03
2018-12-31T19:30:00.244Z,18.30
2018-12-31T19:35:05.721Z,13.87
2018-12-31T19:40:12.664Z,15.13
2018-12-31T19:45:18.124Z,14.87
2018-12-31T19:50:23.523Z,15.00
2018-12-31T19:55:30.009Z,20.50
2018-12-31T20:00:35.424Z,27.03
2018-12-31T20:05:40.757Z,17.30
2018-12-31T20:10:46.060Z,33.87
2018-12-31T20:15:52.119Z,19.07
2018-12-31T20:20:57.460Z,20.77
2018-12-31T20:26:03.064Z,17.53
2018-12-31T20:31:08.433Z,21.77
2018-12-31T20:36:13.763Z,13.97
2018-12-31T20:41:19.681Z,21.47
2018-12-31T20:46:26.284Z,20.63
2018-12-31T20:51:32.062Z,17.27
2018-12-31T20:56:37.463Z,17.40
2018-12-31T21:01:43.165Z,11.83
2018-12-31T21:06:48.694Z,17.90
2018-12-31T21:11:54.284Z,24.93
2018-12-31T21:17:00.207Z,18.67
2018-12-31T21:22:05.599Z,22.73
2018-12-31T21:27:11.094Z,17.67
2018-12-31T21:32:16.471Z,22.77
2018-12-31T21:37:22.360Z,11.63
2018-12-31T21:42:28.739Z,22.83
2018-12-31T21:47:34.720Z,11.73
2018-12-31T21:52:41.992Z,17.97
2018-12-31T21:57:47.973Z,24.03
2018-12-31T22:02:57.190Z,26.20
2018-12-31T22:08:01.600Z,22.30
2018-12-31T22:13:09.310Z,16.30
2018-12-31T22:18:15.955Z,13.37
2018-12-31T22:23:22.470Z,20.67
2018-12-31T22:28:29.312Z,23.20
2018-12-31T22:33:35.488Z,12.37
2018-12-31T22:38:41.019Z,28.43
2018-12-31T22:43:46.536Z,23.50
2018-12-31T22:48:51.829Z,19.27
2018-12-31T22:53:57.417Z,24.10
2018-12-31T22:59:02.768Z,24.37
2018-12-31T23:04:08.366Z,58.73
2018-12-31T23:09:15.467Z,254.73
2018-12-31T23:14:20.892Z,184.27
2018-12-31T23:19:26.312Z,141.27
2018-12-31T23:24:31.727Z,148.50
2018-12-31T23:29:37.090Z,98.47
2018-12-31T23:34:42.622Z,87.63
2018-12-31T23:39:48.304Z,35.70
2018-12-31T23:44:53.925Z,25.40
2018-12-31T23:49:59.282Z,25.00
2018-12-31T23:55:04.732Z,18.90
